Time;durP1;ratioP1;P1;durP2;ratioP2;P2;SDS_P1;SDS_P2;PMS_P1;PMS_P2;Temp;Humidity;BMP_temperature;BMP_pressure;BME280_temperature;BME280_humidity;BME280_pressure;Samples;Min_cycle;Max_cycle;Signal;HPM_P1;HPM_P2
2022/04/01 20:21:37;;;;;;;;;;;16.10;78.00;;;;;;5103991;28;20087;-71
2022/04/01 20:24:04;;;;;;;1.65;0.57;;;16.20;78.10;;;;;;5126163;27;19926;-72
2022/04/01 20:26:32;;;;;;;1.80;0.63;;;16.10;78.30;;;;;;5123384;27;20513;-71
2022/04/01 20:29:00;;;;;;;3.70;0.82;;;16.10;77.50;;;;;;5135428;27;20035;-72
2022/04/01 20:31:27;;;;;;;1.40;0.80;;;16.20;77.90;;;;;;5121223;27;20489;-69
2022/04/01 20:33:54;;;;;;;1.45;0.68;;;16.10;77.90;;;;;;5129987;27;20588;-70
2022/04/01 20:36:21;;;;;;;1.00;0.60;;;16.20;77.90;;;;;;5112449;27;20024;-70
2022/04/01 20:38:52;;;;;;;1.15;0.40;;;16.20;77.40;;;;;;5109822;27;20050;-71
2022/04/01 20:41:19;;;;;;;3.38;0.70;;;16.20;77.60;;;;;;5118096;27;20047;-71
2022/04/01 20:43:46;;;;;;;1.27;0.80;;;16.20;77.40;;;;;;5146243;27;20125;-71
2022/04/01 20:46:14;;;;;;;2.92;0.90;;;16.10;78.20;;;;;;5130200;27;20413;-70
2022/04/01 20:48:42;;;;;;;2.67;0.80;;;16.20;77.70;;;;;;5122737;27;20027;-71
2022/04/01 20:51:09;;;;;;;2.65;0.95;;;16.20;77.30;;;;;;5125603;27;20031;-70
2022/04/01 20:53:36;;;;;;;1.63;0.70;;;16.20;77.50;;;;;;5145798;27;20044;-71
2022/04/01 20:56:05;;;;;;;1.70;0.70;;;16.20;77.70;;;;;;5126644;27;20118;-71
2022/04/01 20:58:33;;;;;;;1.75;0.70;;;16.20;77.40;;;;;;5106450;27;20079;-70
2022/04/01 21:01:02;;;;;;;3.33;0.80;;;16.20;77.10;;;;;;5151109;27;20026;-71
2022/04/01 21:03:30;;;;;;;2.53;0.85;;;16.20;77.50;;;;;;5154602;27;20038;-72
2022/04/01 21:05:57;;;;;;;2.78;1.00;;;16.20;77.60;;;;;;5139197;27;20027;-73
2022/04/01 21:08:24;;;;;;;2.25;0.70;;;16.20;77.20;;;;;;5125761;27;20508;-71
2022/04/01 21:10:51;;;;;;;3.08;0.75;;;16.20;77.20;;;;;;5133800;27;20029;-70
2022/04/01 21:13:19;;;;;;;3.63;0.65;;;16.20;77.60;;;;;;5154452;27;20031;-70
2022/04/01 21:15:46;;;;;;;1.25;0.70;;;16.20;77.60;;;;;;5118962;27;20077;-71
2022/04/01 21:18:13;;;;;;;1.05;0.70;;;16.20;77.30;;;;;;5113770;27;20380;-71
2022/04/01 21:20:40;;;;;;;3.15;0.98;;;16.20;77.40;;;;;;5132331;27;20106;-72
2022/04/01 21:23:08;;;;;;;4.00;0.80;;;16.20;77.50;;;;;;5127617;27;20044;-73
2022/04/01 21:28:22;;;;;;;2.05;0.73;;;16.20;77.00;;;;;;5130690;27;20577;-72
2022/04/01 21:30:50;;;;;;;2.67;1.00;;;16.20;77.00;;;;;;5113237;28;20379;-72
2022/04/01 21:33:17;;;;;;;1.25;0.80;;;16.20;77.70;;;;;;5113081;28;20085;-72
2022/04/01 21:35:44;;;;;;;1.35;0.85;;;16.20;77.40;;;;;;5113699;28;20133;-72
2022/04/01 21:38:11;;;;;;;1.30;0.50;;;16.20;77.30;;;;;;5113259;28;20469;-72
2022/04/01 21:40:38;;;;;;;2.88;0.93;;;16.30;77.00;;;;;;5113254;28;20481;-72
2022/04/01 21:43:06;;;;;;;4.07;1.00;;;16.20;76.90;;;;;;5124247;27;20049;-71
2022/04/01 21:45:33;;;;;;;4.43;1.20;;;16.30;77.80;;;;;;5124587;27;20131;-70
2022/04/01 21:48:00;;;;;;;5.07;1.15;;;16.30;77.50;;;;;;5154046;27;20042;-73
2022/04/01 21:50:27;;;;;;;4.60;0.90;;;16.30;77.40;;;;;;5135746;27;20027;-73
2022/04/01 21:52:54;;;;;;;2.13;1.10;;;16.30;77.50;;;;;;5135881;27;20035;-72
2022/04/01 21:55:22;;;;;;;1.35;0.65;;;16.30;77.30;;;;;;5122974;27;20051;-72
2022/04/01 21:57:49;;;;;;;1.85;0.90;;;16.30;76.80;;;;;;5094051;28;20413;-72
2022/04/01 22:00:43;;;;;;;3.17;0.88;;;16.30;76.70;;;;;;5112566;28;20032;-73
2022/04/01 22:03:11;;;;;;;2.13;0.70;;;16.30;76.90;;;;;;5112756;28;20504;-73
2022/04/01 22:05:39;;;;;;;1.23;0.57;;;16.30;77.40;;;;;;5094237;28;20036;-73
2022/04/01 22:08:07;;;;;;;4.15;1.35;;;16.30;77.40;;;;;;5095860;27;20035;-74
2022/04/01 22:10:35;;;;;;;7.50;1.02;;;16.40;77.80;;;;;;5080957;27;20104;-74
2022/04/01 22:13:03;;;;;;;4.00;0.80;;;16.40;78.00;;;;;;5114553;27;20480;-75
2022/04/01 22:15:31;;;;;;;1.20;0.70;;;16.40;77.50;;;;;;5114662;27;20091;-74
2022/04/01 22:17:59;;;;;;;4.80;0.95;;;16.40;77.10;;;;;;5114057;27;20386;-74
2022/04/01 22:20:26;;;;;;;3.15;0.80;;;16.40;76.90;;;;;;5098106;27;20073;-77
2022/04/01 22:22:54;;;;;;;3.85;1.00;;;16.40;76.90;;;;;;5114002;27;20035;-76
2022/04/01 22:25:24;;;;;;;2.67;0.80;;;16.40;77.10;;;;;;5111727;27;20058;-76
2022/04/01 22:27:51;;;;;;;2.13;0.80;;;16.50;77.10;;;;;;5111358;27;20046;-74
2022/04/01 22:30:22;;;;;;;5.95;1.17;;;16.50;77.60;;;;;;5109587;28;20034;-75
2022/04/01 22:32:50;;;;;;;7.15;1.63;;;16.50;77.20;;;;;;5110001;28;20126;-75
2022/04/01 22:35:17;;;;;;;2.60;1.10;;;16.50;77.20;;;;;;5092428;28;20040;-75
2022/04/01 22:37:44;;;;;;;7.70;1.02;;;16.60;76.60;;;;;;5092835;28;20033;-75
2022/04/01 22:40:12;;;;;;;6.00;1.13;;;16.60;76.50;;;;;;5092646;28;20032;-75
2022/04/01 22:42:39;;;;;;;1.60;0.75;;;16.60;76.30;;;;;;5092649;28;20038;-75
2022/04/01 22:45:06;;;;;;;1.85;0.75;;;16.60;76.00;;;;;;5109674;28;20035;-75
2022/04/01 22:47:34;;;;;;;3.10;1.13;;;16.70;76.40;;;;;;5110577;28;20497;-76
2022/04/01 22:50:01;;;;;;;2.75;0.90;;;16.70;76.30;;;;;;5110850;28;20457;-78
2022/04/01 22:52:28;;;;;;;1.40;0.80;;;16.70;76.10;;;;;;5111367;28;20385;-72
2022/04/01 22:54:57;;;;;;;1.92;0.93;;;16.70;76.30;;;;;;5111377;28;20127;-72
2022/04/01 22:57:25;;;;;;;3.42;0.80;;;16.70;76.60;;;;;;5110701;27;20036;-72
2022/04/01 22:59:53;;;;;;;4.30;1.30;;;16.80;77.20;;;;;;5092365;28;20055;-71
2022/04/01 23:02:20;;;;;;;5.65;1.25;;;16.70;77.00;;;;;;5076113;28;20102;-74
2022/04/01 23:04:47;;;;;;;4.80;1.58;;;16.70;76.80;;;;;;5111188;28;20111;-75
2022/04/01 23:07:15;;;;;;;4.53;1.20;;;16.70;76.90;;;;;;5090826;27;20039;-74
2022/04/01 23:09:42;;;;;;;1.92;0.82;;;16.80;76.90;;;;;;5092733;28;20066;-74
2022/04/01 23:12:10;;;;;;;2.85;0.95;;;16.80;76.50;;;;;;5111776;28;20107;-73
2022/04/01 23:14:38;;;;;;;2.17;0.80;;;16.80;76.30;;;;;;5076250;28;20419;-75
2022/04/01 23:17:05;;;;;;;5.15;1.20;;;16.90;76.90;;;;;;5091390;27;20049;-75
2022/04/01 23:19:32;;;;;;;3.97;1.20;;;16.90;76.80;;;;;;5091515;27;20047;-77
2022/04/01 23:22:00;;;;;;;5.95;1.50;;;17.00;76.70;;;;;;5116135;27;20035;-75
2022/04/01 23:24:28;;;;;;;9.23;1.52;;;17.10;77.10;;;;;;5115033;27;20023;-73
2022/04/01 23:26:57;;;;;;;5.90;1.20;;;17.10;77.10;;;;;;5113094;27;20115;-74
2022/04/01 23:29:25;;;;;;;2.80;1.02;;;17.20;75.90;;;;;;5111890;27;20463;-75
2022/04/01 23:31:52;;;;;;;4.55;0.95;;;17.20;75.50;;;;;;5111326;27;20035;-76
2022/04/01 23:34:21;;;;;;;4.50;1.13;;;17.20;75.10;;;;;;5094147;27;20515;-76
2022/04/01 23:36:48;;;;;;;2.72;1.20;;;17.20;75.40;;;;;;5112330;27;20035;-72
2022/04/01 23:39:15;;;;;;;5.38;1.27;;;17.20;75.10;;;;;;5129448;28;20413;-72
2022/04/01 23:41:43;;;;;;;1.92;1.10;;;17.20;75.10;;;;;;5120203;27;20032;-72
2022/04/01 23:44:10;;;;;;;9.77;1.38;;;17.30;75.50;;;;;;5120536;28;20047;-71
2022/04/01 23:46:37;;;;;;;4.50;1.17;;;17.30;76.80;;;;;;5107420;28;20096;-71
2022/04/01 23:49:04;;;;;;;6.57;1.38;;;17.30;75.60;;;;;;5107850;28;20494;-71
2022/04/01 23:51:35;;;;;;;6.40;1.35;;;17.40;76.50;;;;;;5102619;28;20486;-72
2022/04/01 23:54:02;;;;;;;2.80;1.10;;;17.50;76.60;;;;;;5104126;27;20058;-71
2022/04/01 23:56:29;;;;;;;2.45;1.00;;;17.50;76.40;;;;;;5121375;28;20030;-71
2022/04/01 23:58:56;;;;;;;2.53;0.88;;;17.50;76.40;;;;;;5148353;27;20373;-71
